Time;durP1;ratioP1;P1;durP2;ratioP2;P2;SDS_P1;SDS_P2;PMS_P1;PMS_P2;Temp;Humidity;BMP_temperature;BMP_pressure;BME280_temperature;BME280_humidity;BME280_pressure;Samples;Min_cycle;Max_cycle;Signal;HPM_P1;HPM_P2
2023/05/19 03:30:15;;;;;;;13.47;12.77;;;12.40;99.90;;;;;;5722038;23;20270;-74
2023/05/19 03:32:41;;;;;;;11.73;11.10;;;12.30;99.90;;;;;;4961725;28;20475;-73
2023/05/19 03:35:08;;;;;;;13.17;12.47;;;12.30;99.90;;;;;;4969482;28;20459;-72
2023/05/19 03:37:35;;;;;;;12.93;12.23;;;12.20;99.90;;;;;;4969555;28;20458;-73
2023/05/19 03:40:02;;;;;;;13.30;12.30;;;12.20;99.90;;;;;;4969418;28;20451;-73
2023/05/19 03:42:29;;;;;;;15.00;13.47;;;12.10;99.90;;;;;;4969736;28;20459;-73
2023/05/19 03:44:56;;;;;;;13.60;12.70;;;12.10;99.90;;;;;;4969475;28;20452;-73
2023/05/19 03:47:24;;;;;;;13.73;12.93;;;12.00;99.90;;;;;;4969295;28;20484;-73
2023/05/19 03:49:50;;;;;;;13.00;12.10;;;11.90;99.90;;;;;;4969350;28;20459;-74
2023/05/19 03:52:17;;;;;;;12.77;12.00;;;11.80;99.90;;;;;;4968202;28;20876;-74
2023/05/19 03:54:44;;;;;;;13.27;12.33;;;11.80;99.90;;;;;;4967925;28;20444;-74
2023/05/19 03:57:11;;;;;;;14.17;12.93;;;11.80;99.90;;;;;;4967838;28;20967;-74
2023/05/19 03:59:40;;;;;;;14.20;13.10;;;11.80;99.90;;;;;;4967773;28;20602;-74
2023/05/19 04:02:06;;;;;;;13.07;12.23;;;11.80;99.90;;;;;;4967945;28;20451;-73
2023/05/19 04:04:36;;;;;;;13.77;12.80;;;11.80;99.90;;;;;;4968799;28;20452;-74
2023/05/19 04:07:02;;;;;;;12.83;12.07;;;11.90;99.90;;;;;;4969348;28;21080;-73
2023/05/19 04:09:30;;;;;;;13.60;12.70;;;11.90;99.90;;;;;;4969028;28;20458;-73
2023/05/19 04:11:57;;;;;;;13.83;12.80;;;11.90;99.90;;;;;;4968116;28;20467;-73
2023/05/19 04:14:24;;;;;;;13.60;12.80;;;11.90;99.90;;;;;;4967809;28;20462;-74
2023/05/19 04:16:51;;;;;;;13.30;12.70;;;11.80;99.90;;;;;;4967643;28;20527;-74
2023/05/19 04:19:17;;;;;;;13.33;12.53;;;11.90;99.90;;;;;;4963033;28;20459;-73
2023/05/19 04:21:45;;;;;;;14.00;13.30;;;11.90;99.90;;;;;;4968159;28;20455;-73
2023/05/19 04:24:12;;;;;;;13.33;12.53;;;11.90;99.90;;;;;;4967713;28;20447;-73
2023/05/19 04:26:41;;;;;;;13.00;12.10;;;11.90;99.90;;;;;;4967638;28;20452;-73
2023/05/19 04:29:09;;;;;;;14.33;13.13;;;11.50;99.90;;;;;;4958562;28;20464;-74
2023/05/19 04:31:36;;;;;;;13.30;12.47;;;11.90;99.90;;;;;;4948339;29;20576;-74
2023/05/19 04:34:02;;;;;;;13.03;12.33;;;12.00;99.90;;;;;;4948888;28;20456;-74
2023/05/19 04:36:30;;;;;;;13.00;12.23;;;12.00;99.90;;;;;;4952728;29;20484;-74
2023/05/19 04:39:01;;;;;;;13.23;12.43;;;12.10;99.90;;;;;;4947099;29;20471;-75
2023/05/19 04:41:27;;;;;;;12.20;11.70;;;12.20;99.90;;;;;;4952328;29;20451;-75
2023/05/19 04:43:56;;;;;;;12.97;12.23;;;12.30;99.90;;;;;;4951764;29;20455;-74
2023/05/19 04:46:23;;;;;;;13.53;12.57;;;12.20;99.90;;;;;;4951873;29;21000;-74
2023/05/19 04:48:49;;;;;;;13.67;12.80;;;12.30;99.90;;;;;;4951808;29;20484;-74
2023/05/19 04:51:16;;;;;;;12.60;11.70;;;12.30;99.90;;;;;;4951974;29;20457;-74
2023/05/19 04:53:43;;;;;;;13.20;12.30;;;12.20;99.90;;;;;;4952024;29;20453;-75
2023/05/19 04:56:14;;;;;;;13.33;12.47;;;12.60;99.90;;;;;;4951845;29;20539;-75
2023/05/19 04:58:40;;;;;;;13.80;12.37;;;12.70;99.90;;;;;;4948004;29;20456;-74
2023/05/19 05:01:08;;;;;;;12.17;11.57;;;12.90;99.90;;;;;;4952839;29;20539;-74
2023/05/19 05:03:35;;;;;;;12.97;12.10;;;13.10;99.90;;;;;;4952780;29;20453;-74
2023/05/19 05:06:02;;;;;;;13.00;12.40;;;13.20;99.90;;;;;;4953201;29;20457;-74
2023/05/19 05:08:29;;;;;;;13.90;13.00;;;13.50;99.90;;;;;;4952093;29;20496;-75
2023/05/19 05:10:56;;;;;;;13.20;12.47;;;13.70;99.90;;;;;;4951675;29;20441;-74
2023/05/19 05:13:24;;;;;;;12.73;11.83;;;13.90;99.90;;;;;;4951461;29;20529;-75
2023/05/19 05:15:52;;;;;;;12.87;12.10;;;14.10;99.90;;;;;;4952506;29;20819;-74
2023/05/19 05:18:20;;;;;;;13.20;12.27;;;14.30;99.90;;;;;;4952486;29;20555;-75
2023/05/19 05:20:47;;;;;;;13.50;12.70;;;14.50;99.90;;;;;;4953146;29;20452;-75
2023/05/19 05:23:15;;;;;;;13.63;12.83;;;14.70;99.90;;;;;;4953069;29;20453;-75
2023/05/19 05:25:43;;;;;;;13.63;12.53;;;15.00;99.90;;;;;;4952560;29;20515;-75
2023/05/19 05:28:10;;;;;;;13.37;11.80;;;15.40;99.90;;;;;;4951696;28;20581;-74
2023/05/19 05:30:38;;;;;;;11.93;11.30;;;15.50;99.90;;;;;;4950969;29;20480;-74
2023/05/19 05:33:05;;;;;;;12.73;11.97;;;15.60;99.80;;;;;;4951203;29;20915;-74
2023/05/19 05:35:32;;;;;;;12.77;11.43;;;15.70;99.40;;;;;;4951240;29;20807;-74
2023/05/19 05:38:00;;;;;;;13.50;12.70;;;15.80;98.90;;;;;;4951304;29;20444;-74
2023/05/19 05:40:27;;;;;;;12.90;12.10;;;15.90;99.00;;;;;;4951156;29;20452;-75
2023/05/19 05:42:54;;;;;;;12.90;12.10;;;16.50;98.20;;;;;;4950900;29;20500;-75
2023/05/19 05:45:21;;;;;;;13.50;12.60;;;16.70;96.90;;;;;;4950335;28;20503;-75
2023/05/19 05:47:50;;;;;;;13.10;12.27;;;16.80;96.90;;;;;;4950562;29;20533;-75
2023/05/19 05:50:17;;;;;;;13.97;12.87;;;16.70;96.00;;;;;;4951829;29;20935;-75
2023/05/19 05:52:47;;;;;;;13.40;12.70;;;16.60;96.60;;;;;;4950959;29;20523;-76
2023/05/19 05:55:16;;;;;;;14.33;13.37;;;16.90;96.60;;;;;;4951407;29;20530;-76
2023/05/19 05:57:42;;;;;;;14.90;13.60;;;17.30;95.90;;;;;;4951668;29;20953;-76
2023/05/19 06:00:14;;;;;;;13.30;12.50;;;17.80;94.40;;;;;;4951570;29;20456;-75
2023/05/19 06:02:42;;;;;;;13.30;12.50;;;18.00;94.40;;;;;;4951698;29;20547;-77
2023/05/19 06:05:12;;;;;;;13.23;12.27;;;18.60;92.80;;;;;;4951583;29;20848;-76
2023/05/19 06:07:39;;;;;;;13.70;12.70;;;18.40;92.40;;;;;;4907275;29;21051;-75
2023/05/19 06:10:07;;;;;;;13.13;12.23;;;18.80;93.00;;;;;;4913205;29;20536;-74
2023/05/19 06:12:34;;;;;;;13.03;12.13;;;19.30;92.00;;;;;;4913492;29;20466;-76
2023/05/19 06:15:03;;;;;;;14.20;13.20;;;19.50;90.70;;;;;;4914170;29;20808;-75
2023/05/19 06:17:29;;;;;;;14.00;13.40;;;19.70;90.70;;;;;;4913854;29;20453;-76
2023/05/19 06:19:56;;;;;;;12.30;11.70;;;20.00;89.60;;;;;;4913744;29;20454;-75
2023/05/19 06:22:24;;;;;;;14.37;13.37;;;20.00;88.20;;;;;;4913513;29;20454;-76
2023/05/19 06:24:51;;;;;;;14.13;13.13;;;20.30;87.90;;;;;;4913158;29;20462;-79
2023/05/19 06:27:18;;;;;;;14.67;13.57;;;20.00;87.00;;;;;;4912931;29;20463;-76
2023/05/19 06:29:44;;;;;;;13.40;12.50;;;19.70;88.90;;;;;;4913206;29;20478;-76
2023/05/19 06:32:11;;;;;;;13.60;12.60;;;20.20;88.10;;;;;;4913058;29;20553;-76
2023/05/19 06:34:39;;;;;;;13.97;13.10;;;19.80;87.80;;;;;;4913154;29;20485;-75
2023/05/19 06:37:06;;;;;;;13.73;13.03;;;19.50;88.40;;;;;;4913290;29;20802;-75
2023/05/19 06:39:34;;;;;;;14.97;12.77;;;19.70;89.20;;;;;;4913349;29;20770;-77
2023/05/19 06:42:00;;;;;;;13.77;12.60;;;19.60;88.10;;;;;;4913179;29;20538;-78
2023/05/19 06:44:27;;;;;;;13.93;13.03;;;19.50;88.50;;;;;;4913075;29;20454;-76
2023/05/19 06:46:54;;;;;;;14.47;13.40;;;19.10;89.50;;;;;;4912945;29;20961;-76
2023/05/19 06:49:20;;;;;;;13.73;12.97;;;19.60;89.40;;;;;;4912734;29;21063;-78
2023/05/19 06:51:48;;;;;;;13.60;12.90;;;20.40;86.50;;;;;;4913054;29;20462;-77
2023/05/19 06:54:14;;;;;;;13.20;12.40;;;20.50;85.30;;;;;;4913196;29;20800;-76
2023/05/19 06:56:42;;;;;;;13.83;12.50;;;20.30;86.00;;;;;;4942396;28;20464;-77
2023/05/19 06:59:09;;;;;;;13.60;12.70;;;20.30;84.80;;;;;;4949573;29;20923;-76
2023/05/19 07:01:36;;;;;;;15.73;14.50;;;20.20;85.30;;;;;;4949586;29;20455;-74
2023/05/19 07:04:03;;;;;;;13.70;12.80;;;19.30;88.20;;;;;;4949794;29;20456;-77
2023/05/19 07:06:30;;;;;;;14.30;13.30;;;18.90;89.20;;;;;;4949805;29;20503;-76
2023/05/19 07:08:56;;;;;;;13.57;12.40;;;18.90;90.30;;;;;;4949605;29;20563;-76
2023/05/19 07:11:23;;;;;;;14.60;13.50;;;18.80;90.70;;;;;;4949363;29;20519;-76
2023/05/19 07:13:51;;;;;;;12.90;12.10;;;18.70;91.50;;;;;;4949251;29;20495;-76
2023/05/19 07:16:18;;;;;;;14.40;13.57;;;18.40;91.00;;;;;;4943987;28;20488;-76
2023/05/19 07:18:44;;;;;;;13.70;12.83;;;18.20;91.70;;;;;;4949256;29;20484;-76
2023/05/19 07:21:11;;;;;;;12.83;12.03;;;18.20;91.40;;;;;;4949071;29;20985;-76
2023/05/19 07:23:38;;;;;;;13.10;12.50;;;18.40;91.10;;;;;;4948937;29;20479;-76
2023/05/19 07:26:04;;;;;;;14.03;13.33;;;18.00;91.70;;;;;;4948898;29;20452;-76
2023/05/19 07:28:33;;;;;;;14.77;13.80;;;17.90;92.00;;;;;;4949198;28;20985;-75
2023/05/19 07:31:01;;;;;;;14.37;13.30;;;17.50;92.40;;;;;;4949422;29;20621;-76
2023/05/19 07:33:27;;;;;;;14.50;13.40;;;17.30;93.20;;;;;;4949298;29;20925;-75
2023/05/19 07:35:54;;;;;;;14.00;13.30;;;17.40;93.90;;;;;;4949126;29;20835;-76
2023/05/19 07:38:21;;;;;;;12.77;11.97;;;17.40;93.80;;;;;;4949158;29;20459;-76
2023/05/19 07:40:48;;;;;;;13.70;13.00;;;17.50;93.00;;;;;;4949143;29;20475;-77
2023/05/19 07:43:15;;;;;;;13.50;12.43;;;17.60;93.30;;;;;;4949450;29;20824;-76
2023/05/19 07:45:42;;;;;;;12.67;11.87;;;17.70;92.60;;;;;;4948885;29;20930;-76
2023/05/19 07:48:10;;;;;;;13.93;12.93;;;17.60;92.60;;;;;;4948826;29;21021;-76
2023/05/19 07:50:36;;;;;;;13.17;12.40;;;17.80;92.60;;;;;;4948935;29;20548;-76
2023/05/19 07:53:03;;;;;;;14.27;13.20;;;17.90;92.60;;;;;;4949037;29;20448;-76
2023/05/19 07:55:30;;;;;;;13.80;13.10;;;17.90;93.10;;;;;;4949167;29;20464;-75
2023/05/19 07:57:57;;;;;;;13.50;12.80;;;17.70;92.40;;;;;;4948854;29;21013;-75
2023/05/19 08:00:23;;;;;;;11.97;11.23;;;17.60;92.80;;;;;;4943676;29;20460;-76
2023/05/19 08:02:51;;;;;;;14.20;13.20;;;17.30;92.90;;;;;;4948691;29;21010;-76
2023/05/19 08:05:19;;;;;;;12.80;12.03;;;17.30;93.10;;;;;;4948565;29;20532;-76
2023/05/19 08:07:46;;;;;;;15.73;14.13;;;17.20;93.20;;;;;;4944286;29;20464;-76
2023/05/19 08:10:13;;;;;;;13.23;12.30;;;17.20;94.00;;;;;;4951046;28;20448;-76
2023/05/19 08:12:39;;;;;;;13.23;12.33;;;17.20;93.40;;;;;;4952404;29;20990;-76
2023/05/19 08:15:07;;;;;;;14.27;13.00;;;17.20;93.20;;;;;;4952439;29;20487;-76
2023/05/19 08:17:34;;;;;;;13.97;13.23;;;17.20;93.30;;;;;;4952490;29;20515;-74
2023/05/19 08:20:00;;;;;;;12.70;12.00;;;17.00;93.60;;;;;;4952592;29;20440;-75
2023/05/19 08:22:28;;;;;;;14.73;13.83;;;17.20;93.50;;;;;;4952487;29;20443;-74
2023/05/19 08:24:55;;;;;;;15.83;14.57;;;17.40;93.00;;;;;;4952365;29;20503;-76
2023/05/19 08:27:22;;;;;;;14.90;13.73;;;17.50;93.20;;;;;;4952052;29;20495;-76
2023/05/19 08:29:49;;;;;;;13.60;12.67;;;17.40;92.70;;;;;;4951759;28;20504;-75
2023/05/19 08:32:16;;;;;;;14.03;13.07;;;17.00;92.80;;;;;;4952438;29;20480;-75
2023/05/19 08:34:43;;;;;;;12.63;11.90;;;17.20;93.80;;;;;;4952038;29;20445;-75
2023/05/19 08:37:10;;;;;;;13.10;12.23;;;17.40;93.30;;;;;;4951961;29;20965;-76
2023/05/19 08:39:38;;;;;;;14.30;13.30;;;17.60;92.90;;;;;;4951882;29;21065;-75
2023/05/19 08:42:06;;;;;;;13.60;12.70;;;17.40;92.80;;;;;;4951996;29;20523;-76
2023/05/19 08:44:33;;;;;;;12.77;11.97;;;17.70;92.60;;;;;;4951841;29;20512;-76
2023/05/19 08:47:03;;;;;;;13.63;12.87;;;17.60;92.80;;;;;;4952073;29;20441;-76
2023/05/19 08:49:33;;;;;;;13.80;12.97;;;17.70;93.00;;;;;;4952142;29;20575;-76
2023/05/19 08:52:06;;;;;;;12.50;11.80;;;17.80;92.60;;;;;;4952175;29;20457;-76
2023/05/19 08:54:38;;;;;;;14.43;13.33;;;17.70;92.70;;;;;;4951895;29;20935;-75
2023/05/19 08:58:50;;;;;;;13.30;12.40;;;18.20;94.80;;;;;;5083247;27;20601;-76
2023/05/19 09:01:18;;;;;;;13.80;12.53;;;17.90;93.00;;;;;;5086048;28;20438;-74
2023/05/19 09:03:45;;;;;;;13.53;12.80;;;17.80;92.30;;;;;;5086328;28;20788;-74
2023/05/19 09:06:12;;;;;;;12.83;11.93;;;17.80;92.60;;;;;;5086291;28;20448;-75
2023/05/19 09:08:40;;;;;;;13.37;12.30;;;17.60;92.70;;;;;;5085259;28;20541;-75
2023/05/19 09:11:07;;;;;;;15.07;13.77;;;17.90;93.10;;;;;;5084970;28;20442;-75
2023/05/19 09:13:33;;;;;;;13.80;12.90;;;18.10;92.10;;;;;;5084700;28;20542;-76
2023/05/19 09:16:02;;;;;;;14.13;13.23;;;17.80;92.00;;;;;;5085061;28;20438;-75
2023/05/19 09:18:29;;;;;;;15.37;14.20;;;17.70;92.40;;;;;;5084688;28;20486;-75
2023/05/19 09:20:59;;;;;;;14.77;13.87;;;17.70;92.80;;;;;;5084559;28;20805;-75
2023/05/19 09:23:28;;;;;;;13.50;12.60;;;17.60;93.10;;;;;;5084383;28;20515;-76
2023/05/19 09:25:55;;;;;;;13.87;12.97;;;17.70;92.70;;;;;;5084571;28;20517;-76
2023/05/19 09:28:26;;;;;;;15.83;14.83;;;18.00;92.40;;;;;;5081462;28;20467;-76
2023/05/19 09:31:01;;;;;;;13.50;12.60;;;18.20;91.70;;;;;;5074190;28;20866;-76
2023/05/19 09:33:28;;;;;;;12.60;11.90;;;17.70;91.40;;;;;;5075285;28;20438;-76
2023/05/19 09:35:55;;;;;;;14.17;13.27;;;17.50;92.10;;;;;;5074156;28;20444;-77
2023/05/19 09:38:23;;;;;;;13.63;12.80;;;17.40;92.60;;;;;;5072897;28;20474;-76
2023/05/19 09:40:50;;;;;;;13.53;12.70;;;17.60;92.30;;;;;;5073235;28;20444;-76
2023/05/19 09:43:17;;;;;;;13.57;12.57;;;17.70;92.80;;;;;;5073602;28;20452;-76
2023/05/19 09:45:44;;;;;;;13.13;12.20;;;18.00;92.30;;;;;;5075291;28;20495;-77
2023/05/19 09:48:13;;;;;;;12.97;12.17;;;18.00;92.40;;;;;;5073563;28;20465;-77
2023/05/19 09:50:42;;;;;;;12.57;11.83;;;18.50;92.40;;;;;;5073104;28;20965;-77
2023/05/19 09:53:12;;;;;;;12.63;12.03;;;19.40;91.00;;;;;;5073067;28;20991;-76
2023/05/19 09:55:40;;;;;;;14.13;13.03;;;19.80;90.00;;;;;;5073380;28;20787;-76
2023/05/19 09:58:07;;;;;;;13.67;12.57;;;19.90;88.20;;;;;;5074134;28;20580;-75
2023/05/19 10:00:34;;;;;;;13.97;13.07;;;19.60;87.90;;;;;;5073189;28;20448;-76
2023/05/19 10:03:02;;;;;;;12.60;11.90;;;19.40;88.60;;;;;;5072946;28;20438;-77
2023/05/19 10:05:31;;;;;;;13.43;12.47;;;18.80;88.90;;;;;;5072756;28;20529;-77
2023/05/19 10:07:57;;;;;;;13.40;12.60;;;18.70;90.00;;;;;;5073379;28;20826;-75
2023/05/19 10:10:25;;;;;;;12.73;11.93;;;18.70;90.00;;;;;;5061382;28;20493;-76
2023/05/19 10:12:52;;;;;;;13.10;12.30;;;18.10;90.70;;;;;;5054523;28;20468;-76
2023/05/19 10:15:19;;;;;;;12.67;12.00;;;17.70;91.40;;;;;;5060354;28;20449;-75
2023/05/19 10:17:46;;;;;;;13.63;12.67;;;17.50;91.60;;;;;;5054117;28;20518;-76
2023/05/19 10:20:14;;;;;;;13.50;12.70;;;17.70;91.90;;;;;;5051763;28;20452;-76
2023/05/19 10:22:44;;;;;;;13.80;12.80;;;18.00;91.60;;;;;;5052095;28;20866;-77
2023/05/19 10:25:13;;;;;;;13.33;12.23;;;18.30;91.40;;;;;;5051942;28;20459;-77
2023/05/19 10:27:44;;;;;;;13.17;12.47;;;18.30;91.60;;;;;;5051902;28;20459;-77
2023/05/19 10:30:15;;;;;;;12.77;12.07;;;18.30;91.60;;;;;;5051859;28;20468;-77
2023/05/19 10:32:45;;;;;;;12.37;11.77;;;18.30;91.30;;;;;;5061804;28;20447;-77
2023/05/19 10:35:42;;;;;;;12.00;11.20;;;18.60;90.60;;;;;;5058276;28;20534;-77
2023/05/19 10:38:20;;;;;;;13.33;12.27;;;18.50;90.60;;;;;;5051079;28;20509;-77
2023/05/19 10:40:57;;;;;;;13.47;12.30;;;18.30;90.40;;;;;;5051525;28;20542;-76
2023/05/19 10:43:31;;;;;;;12.70;11.90;;;18.30;91.00;;;;;;5051406;28;20868;-77
2023/05/19 10:45:58;;;;;;;13.60;12.80;;;18.00;91.10;;;;;;5051790;28;20530;-76
2023/05/19 10:48:25;;;;;;;12.50;11.93;;;18.10;90.80;;;;;;5051332;28;21002;-75
2023/05/19 10:50:54;;;;;;;11.73;11.13;;;18.20;90.80;;;;;;5050838;28;20444;-75
2023/05/19 10:53:29;;;;;;;13.30;12.40;;;17.90;91.20;;;;;;5051022;28;20570;-76
2023/05/19 10:55:57;;;;;;;12.23;11.70;;;17.70;91.20;;;;;;5051142;28;20447;-75
2023/05/19 10:58:37;;;;;;;12.67;11.90;;;17.60;91.80;;;;;;5050637;28;20498;-75
2023/05/19 11:01:08;;;;;;;12.83;12.23;;;17.50;92.00;;;;;;5051141;28;20505;-75
2023/05/19 11:03:45;;;;;;;12.63;11.73;;;17.40;92.00;;;;;;5050677;28;20455;-75
2023/05/19 11:06:19;;;;;;;12.97;12.17;;;17.50;92.50;;;;;;5051287;28;20539;-75
2023/05/19 11:08:52;;;;;;;13.93;13.00;;;17.70;92.10;;;;;;5051310;28;20455;-75
2023/05/19 11:11:18;;;;;;;12.50;11.63;;;17.90;92.30;;;;;;5051080;28;20459;-75
2023/05/19 11:13:47;;;;;;;13.03;12.23;;;18.00;92.20;;;;;;5051270;28;20500;-75
2023/05/19 11:16:14;;;;;;;13.63;12.70;;;18.40;91.60;;;;;;5051299;28;20484;-75
2023/05/19 11:18:41;;;;;;;14.47;13.40;;;18.80;90.80;;;;;;5050052;28;20499;-75
2023/05/19 11:21:08;;;;;;;11.27;10.47;;;19.20;90.20;;;;;;5049862;28;20447;-75
2023/05/19 11:23:38;;;;;;;13.47;12.67;;;18.90;90.50;;;;;;5050775;28;20455;-75
2023/05/19 11:26:07;;;;;;;13.03;12.33;;;18.60;91.00;;;;;;5051065;28;20976;-74
2023/05/19 11:28:35;;;;;;;12.60;11.77;;;18.20;91.40;;;;;;5050635;28;20500;-75
2023/05/19 11:31:02;;;;;;;12.87;12.20;;;17.90;91.80;;;;;;5050931;28;20452;-74
2023/05/19 11:33:32;;;;;;;13.13;12.13;;;18.00;92.30;;;;;;5050914;28;20452;-74
2023/05/19 11:35:58;;;;;;;11.97;11.30;;;17.70;91.90;;;;;;5050940;28;21086;-74
2023/05/19 11:38:26;;;;;;;12.60;11.80;;;17.30;92.40;;;;;;5050587;28;20495;-74
2023/05/19 11:40:53;;;;;;;13.10;12.10;;;17.40;92.80;;;;;;5050708;28;20514;-74
2023/05/19 11:43:24;;;;;;;13.93;12.77;;;17.60;92.60;;;;;;5050368;28;20842;-75
2023/05/19 11:45:51;;;;;;;12.63;12.00;;;17.50;92.90;;;;;;5050481;28;20768;-75
2023/05/19 17:38:38;;;;;;;11.93;11.23;;;16.40;98.70;;;;;;5085864;27;20595;-75
2023/05/19 17:41:08;;;;;;;12.40;11.70;;;16.40;98.50;;;;;;5085672;28;20472;-75
2023/05/19 17:43:35;;;;;;;13.23;12.07;;;16.60;98.30;;;;;;5085647;28;20442;-76
2023/05/19 17:46:02;;;;;;;12.43;11.70;;;16.70;98.00;;;;;;5085624;28;20799;-75
2023/05/19 17:48:28;;;;;;;12.50;11.90;;;17.00;97.60;;;;;;5085721;28;20438;-75
2023/05/19 17:50:55;;;;;;;12.70;12.10;;;17.10;97.20;;;;;;5085689;28;20557;-76
2023/05/19 17:53:23;;;;;;;11.47;10.87;;;17.10;96.90;;;;;;5085422;28;20446;-76
2023/05/19 17:55:52;;;;;;;13.10;12.40;;;17.20;97.00;;;;;;5085348;28;20786;-76
2023/05/19 17:58:19;;;;;;;13.57;12.97;;;17.20;97.00;;;;;;5085385;28;20555;-75
2023/05/19 18:00:46;;;;;;;11.00;10.33;;;17.10;97.00;;;;;;5085404;28;20451;-75
2023/05/19 18:03:13;;;;;;;11.27;10.57;;;17.10;97.30;;;;;;5085687;28;20457;-77
2023/05/19 18:05:42;;;;;;;13.50;12.80;;;17.10;97.40;;;;;;5085320;28;20446;-75
2023/05/19 18:08:09;;;;;;;12.50;12.00;;;17.00;97.40;;;;;;5085279;28;20544;-77
2023/05/19 18:10:37;;;;;;;12.93;12.20;;;16.90;97.60;;;;;;5085160;28;21050;-74
2023/05/19 18:13:05;;;;;;;13.00;12.20;;;16.90;97.90;;;;;;5079667;28;20474;-75
2023/05/19 18:15:32;;;;;;;13.03;12.13;;;16.90;98.10;;;;;;5085207;28;20958;-77
2023/05/19 18:17:59;;;;;;;12.97;12.13;;;16.80;98.20;;;;;;5085515;28;20573;-75
2023/05/19 18:20:26;;;;;;;13.10;12.03;;;16.80;98.40;;;;;;5084641;28;20462;-77
2023/05/19 18:22:53;;;;;;;11.87;11.27;;;16.70;98.60;;;;;;5084738;28;20707;-75
2023/05/19 18:25:19;;;;;;;13.00;12.20;;;16.70;98.60;;;;;;5084359;28;20458;-75
2023/05/19 18:27:46;;;;;;;12.83;12.03;;;16.60;98.80;;;;;;5084589;28;20869;-76
2023/05/19 18:30:14;;;;;;;13.33;12.30;;;16.60;99.00;;;;;;5084647;28;20473;-75
2023/05/19 18:32:41;;;;;;;11.73;10.97;;;16.60;99.30;;;;;;5084279;28;20499;-75
2023/05/19 18:35:09;;;;;;;12.27;11.47;;;16.50;99.60;;;;;;5084226;28;20993;-75
2023/05/19 18:37:35;;;;;;;13.53;12.20;;;16.50;99.90;;;;;;5083706;28;21027;-76
2023/05/19 18:40:02;;;;;;;13.43;12.23;;;16.40;99.90;;;;;;5084436;28;20474;-76
2023/05/19 18:42:29;;;;;;;13.53;12.83;;;16.30;99.90;;;;;;5084230;28;20450;-77
2023/05/19 18:44:56;;;;;;;11.87;11.17;;;16.30;99.90;;;;;;5084258;28;20458;-77
2023/05/19 18:47:24;;;;;;;15.23;13.73;;;16.20;99.90;;;;;;5084018;28;20508;-76
2023/05/19 18:49:51;;;;;;;13.60;12.70;;;16.20;99.90;;;;;;5070826;28;20561;-76
2023/05/19 18:52:18;;;;;;;13.50;12.70;;;16.10;99.90;;;;;;5070532;28;20447;-76
2023/05/19 18:54:45;;;;;;;13.77;12.87;;;16.00;99.90;;;;;;5071066;28;20494;-75
2023/05/19 18:57:13;;;;;;;14.97;14.07;;;15.90;99.90;;;;;;5070664;28;20569;-75
2023/05/19 18:59:40;;;;;;;16.23;15.00;;;15.80;99.90;;;;;;5070328;28;20511;-76
2023/05/19 19:02:06;;;;;;;14.50;13.60;;;15.80;99.90;;;;;;5070232;28;20451;-77
2023/05/19 19:04:34;;;;;;;15.70;14.60;;;15.70;99.90;;;;;;5070160;28;20512;-76
2023/05/19 19:07:01;;;;;;;15.10;14.20;;;15.50;99.90;;;;;;5070804;28;20917;-76
2023/05/19 19:09:28;;;;;;;16.60;15.03;;;15.40;99.90;;;;;;5070658;28;20455;-76
2023/05/19 19:11:54;;;;;;;16.10;14.93;;;15.40;99.90;;;;;;5070246;28;20459;-76
2023/05/19 19:14:21;;;;;;;14.83;13.93;;;15.30;99.90;;;;;;5069965;28;20467;-76
2023/05/19 19:16:48;;;;;;;14.47;13.60;;;15.50;99.90;;;;;;5070048;28;20447;-76
2023/05/19 19:19:14;;;;;;;14.60;13.77;;;15.50;99.90;;;;;;5070272;28;20447;-75
2023/05/19 19:21:42;;;;;;;15.57;14.30;;;15.50;99.90;;;;;;5070001;28;20849;-75
2023/05/19 19:24:09;;;;;;;15.13;13.73;;;15.50;99.90;;;;;;5069929;28;20451;-75
2023/05/19 19:26:36;;;;;;;16.10;15.00;;;15.50;99.90;;;;;;5069687;28;20804;-76
2023/05/19 19:29:03;;;;;;;14.33;13.50;;;15.60;99.90;;;;;;5067721;28;20921;-76
2023/05/19 19:31:31;;;;;;;14.40;13.50;;;15.60;99.90;;;;;;5069942;28;20529;-76
2023/05/19 19:34:02;;;;;;;13.90;13.00;;;15.70;99.90;;;;;;5069916;28;20465;-76
2023/05/19 19:36:29;;;;;;;14.67;13.70;;;15.70;99.90;;;;;;5069363;28;20900;-75
2023/05/19 19:38:57;;;;;;;14.73;13.67;;;15.70;99.90;;;;;;5069543;28;20487;-76
2023/05/19 19:41:24;;;;;;;14.03;13.23;;;15.70;99.90;;;;;;5069246;28;20516;-76
2023/05/19 19:43:51;;;;;;;15.07;14.10;;;15.70;99.90;;;;;;5069581;28;20473;-76
2023/05/19 19:46:18;;;;;;;14.80;13.80;;;15.70;99.90;;;;;;5069311;28;20461;-75
2023/05/19 19:48:45;;;;;;;15.00;14.00;;;15.70;99.90;;;;;;5069869;28;20561;-76
2023/05/19 19:51:12;;;;;;;14.00;13.20;;;15.70;99.90;;;;;;5068819;28;20459;-77
2023/05/19 19:53:38;;;;;;;13.67;12.63;;;15.80;99.90;;;;;;5069033;28;20496;-75
2023/05/19 19:56:06;;;;;;;14.63;13.83;;;15.80;99.90;;;;;;5069406;28;20448;-76
2023/05/19 19:58:33;;;;;;;17.03;15.93;;;15.70;99.90;;;;;;5069316;28;20513;-76
2023/05/19 20:01:02;;;;;;;16.07;15.17;;;15.50;99.90;;;;;;5068777;28;20505;-76
2023/05/19 20:03:29;;;;;;;14.93;14.13;;;15.40;99.90;;;;;;5069325;28;20913;-76
2023/05/19 20:05:56;;;;;;;15.70;14.80;;;15.40;99.90;;;;;;5069313;28;20458;-76
2023/05/19 20:08:23;;;;;;;15.93;14.90;;;15.30;99.90;;;;;;5069091;28;21008;-76
2023/05/19 20:10:50;;;;;;;18.23;14.13;;;15.40;99.90;;;;;;5068810;28;20453;-76
2023/05/19 20:13:18;;;;;;;15.80;14.73;;;15.50;99.90;;;;;;5069061;28;20497;-75
2023/05/19 20:15:46;;;;;;;15.70;14.73;;;15.50;99.90;;;;;;5069253;28;20857;-76
2023/05/19 20:18:13;;;;;;;17.23;16.10;;;15.50;99.90;;;;;;5069717;28;20494;-74
2023/05/19 20:20:40;;;;;;;16.00;15.00;;;15.50;99.90;;;;;;5069438;28;20535;-73
2023/05/19 20:23:07;;;;;;;15.93;15.03;;;15.50;99.90;;;;;;5069744;28;20512;-72
2023/05/19 20:25:34;;;;;;;17.40;16.20;;;15.50;99.90;;;;;;5069507;28;20654;-73
2023/05/19 20:28:01;;;;;;;17.30;16.30;;;15.50;99.90;;;;;;5069361;28;20811;-73
2023/05/19 20:30:29;;;;;;;17.07;15.60;;;15.60;99.90;;;;;;5063219;28;20552;-73
2023/05/19 20:32:56;;;;;;;17.70;16.20;;;15.50;99.90;;;;;;5058763;28;20955;-73
2023/05/19 20:35:23;;;;;;;17.50;16.40;;;15.50;99.90;;;;;;5059985;28;20459;-73
2023/05/19 20:37:50;;;;;;;17.50;16.40;;;15.60;99.90;;;;;;5057895;28;20606;-73
2023/05/19 20:40:17;;;;;;;17.33;16.23;;;15.60;99.90;;;;;;5058453;28;20454;-73
2023/05/19 20:42:44;;;;;;;18.73;17.00;;;15.60;99.90;;;;;;5059672;28;20994;-73
2023/05/19 20:45:11;;;;;;;17.20;16.10;;;15.60;99.90;;;;;;5057902;28;20460;-73
2023/05/19 20:47:39;;;;;;;16.67;15.67;;;15.60;99.90;;;;;;5058250;28;20443;-73
2023/05/19 20:50:06;;;;;;;17.80;16.57;;;15.60;99.90;;;;;;5059378;28;20439;-73
2023/05/19 20:52:33;;;;;;;16.63;15.43;;;15.70;99.90;;;;;;5058335;28;20494;-73
2023/05/19 20:55:00;;;;;;;16.90;15.80;;;15.70;99.90;;;;;;5057987;28;20443;-73
2023/05/19 20:57:26;;;;;;;17.70;16.60;;;15.80;99.90;;;;;;5059253;28;20483;-73
2023/05/19 20:59:53;;;;;;;16.27;15.20;;;15.70;99.90;;;;;;5058208;28;20440;-73
2023/05/19 21:02:20;;;;;;;17.17;16.07;;;15.60;99.90;;;;;;5057529;28;20454;-74
2023/05/19 21:04:48;;;;;;;16.50;15.67;;;15.70;99.90;;;;;;5059457;28;20443;-73
2023/05/19 21:07:15;;;;;;;17.23;15.77;;;15.70;99.90;;;;;;5058544;28;20491;-73
2023/05/19 21:09:45;;;;;;;16.03;14.97;;;15.80;99.90;;;;;;5057246;28;20936;-73
2023/05/19 21:12:12;;;;;;;16.33;15.23;;;15.80;99.90;;;;;;5048076;28;20518;-73
2023/05/19 21:14:38;;;;;;;17.50;16.07;;;15.70;99.90;;;;;;5048222;28;20495;-73
2023/05/19 21:17:05;;;;;;;16.20;15.00;;;15.70;99.90;;;;;;5048043;28;20922;-73
2023/05/19 21:19:33;;;;;;;16.77;15.77;;;15.60;99.90;;;;;;5048266;28;20571;-73
2023/05/19 21:22:01;;;;;;;16.57;15.27;;;15.60;99.90;;;;;;5048282;28;20470;-73
2023/05/19 21:24:29;;;;;;;14.53;13.60;;;15.60;99.90;;;;;;5054642;28;20448;-73
2023/05/19 21:26:56;;;;;;;16.30;15.27;;;15.70;99.90;;;;;;5057983;28;20546;-73
2023/05/19 21:29:24;;;;;;;16.37;15.27;;;15.60;99.90;;;;;;5058759;28;20505;-73
2023/05/19 21:31:54;;;;;;;15.50;14.40;;;15.40;99.90;;;;;;5057395;28;20448;-73
2023/05/19 21:34:21;;;;;;;14.97;14.13;;;15.50;99.90;;;;;;5057211;28;20858;-72
2023/05/19 21:36:48;;;;;;;16.10;14.90;;;15.50;99.90;;;;;;5056799;28;20475;-73
2023/05/19 21:39:16;;;;;;;16.53;15.63;;;15.50;99.90;;;;;;5058241;28;20536;-73
2023/05/19 21:41:43;;;;;;;15.10;14.10;;;15.50;99.90;;;;;;5059057;28;20439;-73
2023/05/19 21:44:09;;;;;;;16.70;15.70;;;15.30;99.90;;;;;;5057083;28;20530;-72
2023/05/19 21:46:36;;;;;;;16.70;15.20;;;15.30;99.90;;;;;;5057603;28;20806;-72
2023/05/19 21:49:03;;;;;;;16.30;15.30;;;15.30;99.90;;;;;;5058947;28;20805;-73
2023/05/19 21:51:30;;;;;;;16.00;14.83;;;15.20;99.90;;;;;;5056288;28;20440;-74